createdAt,value
2019-03-01T00:00:56.393Z,100413.53
2019-03-01T00:03:25.956Z,100413.36
2019-03-01T00:06:31.825Z,100410.92
2019-03-01T00:09:40.723Z,100408.98
2019-03-01T00:12:51.093Z,100410.97
2019-03-01T00:16:10.755Z,100416.17
2019-03-01T00:19:27.485Z,100412.25
2019-03-01T00:22:21.501Z,100410.77
2019-03-01T00:25:38.206Z,100401.53
2019-03-01T00:28:37.813Z,100399.95
2019-03-01T00:31:48.150Z,100394.79
2019-03-01T00:34:51.578Z,100393.68
2019-03-01T00:37:41.799Z,100393.17
2019-03-01T00:40:49.478Z,100386.93
2019-03-01T00:43:55.666Z,100380.06
2019-03-01T00:46:25.360Z,100379.06
2019-03-01T00:48:54.947Z,100383.82
2019-03-01T00:51:24.573Z,100378.27
2019-03-01T00:53:54.170Z,100379.06
2019-03-01T00:56:23.709Z,100367.11
2019-03-01T00:58:53.267Z,100370.23
2019-03-01T01:01:22.926Z,100368.36
2019-03-01T01:03:54.269Z,100367.11
2019-03-01T01:06:23.825Z,100361.92
2019-03-01T01:08:53.642Z,100359.39
2019-03-01T01:11:23.120Z,100356.85
2019-03-01T01:13:52.746Z,100352.95
2019-03-01T01:16:24.745Z,100355.63
2019-03-01T01:18:54.469Z,100354.97
2019-03-01T01:21:23.854Z,100345.09
2019-03-01T01:23:53.606Z,100347.77
2019-03-01T01:26:23.444Z,100341.22
2019-03-01T01:28:53.183Z,100338.11
2019-03-01T01:31:22.841Z,100339.37
2019-03-01T01:33:52.459Z,100331.70
2019-03-01T01:36:22.126Z,100333.87
2019-03-01T01:38:53.464Z,100329.37
2019-03-01T01:41:23.118Z,100323.08
2019-03-01T01:43:55.322Z,100317.87
2019-03-01T01:46:24.885Z,100318.89
2019-03-01T01:48:54.719Z,100321.08
2019-03-01T01:51:26.567Z,100317.30
2019-03-01T01:53:56.166Z,100316.19
2019-03-01T01:56:26.518Z,100310.03
2019-03-01T01:58:55.975Z,100311.83
2019-03-01T02:01:25.494Z,100304.57
2019-03-01T02:03:55.221Z,100306.16
2019-03-01T02:06:24.905Z,100303.08
2019-03-01T02:08:54.734Z,100304.23
2019-03-01T02:11:24.247Z,100305.94
2019-03-01T02:13:53.872Z,100302.41
2019-03-01T02:16:23.462Z,100302.23
2019-03-01T02:18:57.749Z,100297.91
2019-03-01T02:21:24.363Z,100297.22
2019-03-01T02:23:53.961Z,100292.61
2019-03-01T02:26:23.366Z,100298.44
2019-03-01T02:28:52.769Z,100302.02
2019-03-01T02:31:22.330Z,100298.73
2019-03-01T02:33:51.852Z,100291.17
2019-03-01T02:36:21.423Z,100295.32
2019-03-01T02:38:51.157Z,100299.58
2019-03-01T02:41:20.643Z,100291.98
2019-03-01T02:43:50.182Z,100285.38
2019-03-01T02:46:19.858Z,100288.46
2019-03-01T02:48:49.356Z,100283.66
2019-03-01T02:51:18.949Z,100283.29
2019-03-01T02:53:48.586Z,100287.98
2019-03-01T02:56:17.989Z,100283.97
2019-03-01T02:58:47.380Z,100282.23
2019-03-01T03:01:16.971Z,100282.86
2019-03-01T03:03:46.478Z,100286.14
2019-03-01T03:06:21.992Z,100282.41
2019-03-01T03:08:52.558Z,100286.56
2019-03-01T03:11:22.210Z,100282.86
2019-03-01T03:13:51.740Z,100290.48
2019-03-01T03:16:21.482Z,100289.47
2019-03-01T03:18:51.117Z,100285.73
2019-03-01T03:21:21.177Z,100288.64
2019-03-01T03:23:50.748Z,100289.41
2019-03-01T03:26:20.356Z,100278.40
2019-03-01T03:28:49.918Z,100286.73
2019-03-01T03:31:19.445Z,100279.22
2019-03-01T03:33:48.904Z,100278.94
2019-03-01T03:36:19.547Z,100272.94
2019-03-01T03:38:49.204Z,100274.56
2019-03-01T03:41:18.798Z,100275.61
2019-03-01T03:43:48.389Z,100277.69
2019-03-01T03:46:17.980Z,100277.46
2019-03-01T03:48:47.415Z,100279.54
2019-03-01T03:51:16.879Z,100274.70
2019-03-01T03:53:46.458Z,100273.67
2019-03-01T03:56:15.974Z,100274.39
2019-03-01T03:58:45.542Z,100271.52
2019-03-01T04:01:15.106Z,100270.38
2019-03-01T04:03:45.565Z,100281.95
2019-03-01T04:06:15.579Z,100269.91
2019-03-01T04:08:45.166Z,100268.69
2019-03-01T04:11:14.636Z,100276.17
2019-03-01T04:13:44.083Z,100269.94
2019-03-01T04:16:13.639Z,100274.79
2019-03-01T04:18:43.184Z,100272.53
2019-03-01T04:21:12.819Z,100271.98
2019-03-01T04:23:42.427Z,100273.22
2019-03-01T04:26:12.296Z,100279.07
2019-03-01T04:28:41.798Z,100277.05
2019-03-01T04:31:12.330Z,100276.73
2019-03-01T04:33:41.840Z,100274.79
2019-03-01T04:36:11.343Z,100275.81
2019-03-01T04:38:41.223Z,100278.94
2019-03-01T04:41:10.878Z,100270.47
2019-03-01T04:43:40.497Z,100254.25
2019-03-01T04:46:10.491Z,100252.02
2019-03-01T04:48:39.996Z,100249.88
2019-03-01T04:51:10.528Z,100256.08
2019-03-01T04:53:40.100Z,100258.25
2019-03-01T04:56:09.741Z,100261.34
2019-03-01T04:58:39.370Z,100265.45
2019-03-01T05:01:08.956Z,100266.03
2019-03-01T05:03:38.796Z,100275.48
2019-03-01T05:06:08.432Z,100278.53
2019-03-01T05:08:37.983Z,100280.92
2019-03-01T05:11:07.544Z,100279.97
2019-03-01T05:13:37.596Z,100275.67
2019-03-01T05:16:07.187Z,100279.77
2019-03-01T05:18:36.667Z,100283.47
2019-03-01T05:21:06.244Z,100286.55
2019-03-01T05:23:35.868Z,100284.20
2019-03-01T05:26:06.427Z,100290.88
2019-03-01T05:28:35.943Z,100292.63
2019-03-01T05:31:05.489Z,100289.96
2019-03-01T05:33:35.000Z,100284.61
2019-03-01T05:36:04.480Z,100282.64
2019-03-01T05:38:34.066Z,100280.97
2019-03-01T05:41:03.628Z,100279.03
2019-03-01T05:43:33.176Z,100279.95
2019-03-01T05:46:02.802Z,100284.56
2019-03-01T05:48:32.493Z,100282.62
2019-03-01T05:51:01.907Z,100288.20
2019-03-01T05:53:31.364Z,100289.31
2019-03-01T05:56:00.945Z,100290.97
2019-03-01T05:58:48.254Z,100293.97
2019-03-01T06:01:25.257Z,100305.67
2019-03-01T06:04:07.410Z,100307.80
2019-03-01T06:06:54.644Z,100308.34
2019-03-01T06:09:53.404Z,100309.68
2019-03-01T06:13:16.080Z,100307.29
2019-03-01T06:16:29.355Z,100307.29
2019-03-01T06:19:25.434Z,100310.09
2019-03-01T06:22:27.131Z,100314.72
2019-03-01T06:25:22.475Z,100309.49
2019-03-01T06:28:20.548Z,100316.78
2019-03-01T06:31:28.926Z,100321.07
2019-03-01T06:34:30.501Z,100326.23
2019-03-01T06:37:43.174Z,100312.64
2019-03-01T06:41:19.507Z,100314.89
2019-03-01T06:44:32.416Z,100317.25
2019-03-01T06:47:38.620Z,100317.70
2019-03-01T06:50:36.279Z,100324.06
2019-03-01T06:53:05.922Z,100327.56
2019-03-01T06:55:58.950Z,100323.55
2019-03-01T06:58:33.949Z,100323.83
2019-03-01T07:01:10.658Z,100334.30
2019-03-01T07:03:40.327Z,100329.41
2019-03-01T07:06:10.591Z,100330.19
2019-03-01T07:08:40.058Z,100341.26
2019-03-01T07:11:09.681Z,100344.11
2019-03-01T07:13:39.183Z,100347.70
2019-03-01T07:16:08.865Z,100349.13
2019-03-01T07:18:38.317Z,100353.74
2019-03-01T07:21:07.803Z,100357.25
2019-03-01T07:23:40.439Z,100359.59
2019-03-01T07:26:13.226Z,100360.66
2019-03-01T07:28:42.822Z,100370.86
2019-03-01T07:31:14.782Z,100375.15
2019-03-01T07:33:44.338Z,100372.61
2019-03-01T07:36:14.064Z,100375.70
2019-03-01T07:38:43.628Z,100383.54
2019-03-01T07:41:16.077Z,100382.52
2019-03-01T07:43:45.806Z,100384.09
2019-03-01T07:46:17.168Z,100384.27
2019-03-01T07:48:46.682Z,100386.25
2019-03-01T07:51:16.665Z,100388.92
2019-03-01T07:53:47.851Z,100389.52
2019-03-01T07:56:17.325Z,100393.41
2019-03-01T07:58:47.376Z,100397.32
2019-03-01T08:01:18.199Z,100396.69
2019-03-01T08:03:52.290Z,100407.89
2019-03-01T08:06:20.033Z,100410.69
2019-03-01T08:08:49.533Z,100414.58
2019-03-01T08:11:18.973Z,100418.27
2019-03-01T08:13:49.465Z,100420.56
2019-03-01T08:16:21.269Z,100431.13
2019-03-01T08:18:51.232Z,100426.10
2019-03-01T08:21:20.834Z,100432.88
2019-03-01T08:23:50.738Z,100427.53
2019-03-01T08:26:20.491Z,100436.03
2019-03-01T08:28:50.016Z,100440.05
2019-03-01T08:31:21.108Z,100437.14
2019-03-01T08:33:50.755Z,100451.38
2019-03-01T08:36:20.297Z,100457.75
2019-03-01T08:38:50.093Z,100449.12
2019-03-01T08:41:21.638Z,100454.28
2019-03-01T08:43:52.090Z,100456.95
2019-03-01T08:46:21.841Z,100461.86
2019-03-01T08:48:53.763Z,100456.79
2019-03-01T08:51:26.499Z,100466.56
2019-03-01T08:53:56.819Z,100464.69
2019-03-01T08:56:26.732Z,100473.63
2019-03-01T08:58:58.786Z,100471.91
2019-03-01T09:01:28.254Z,100477.27
2019-03-01T09:04:03.822Z,100477.59
2019-03-01T09:06:33.417Z,100473.25
2019-03-01T09:09:04.553Z,100477.42
2019-03-01T09:11:34.227Z,100481.80
2019-03-01T09:14:04.181Z,100480.70
2019-03-01T09:16:38.161Z,100481.95
2019-03-01T09:19:07.802Z,100485.93
2019-03-01T09:21:39.423Z,100485.67
2019-03-01T09:24:08.646Z,100483.63
2019-03-01T09:26:38.206Z,100480.80
2019-03-01T09:29:08.538Z,100487.09
2019-03-01T09:31:38.037Z,100488.83
2019-03-01T09:34:07.617Z,100490.27
2019-03-01T09:36:44.137Z,100496.12
2019-03-01T09:39:14.519Z,100498.15
2019-03-01T09:41:45.112Z,100507.49
2019-03-01T09:44:14.606Z,100512.86
2019-03-01T09:46:44.059Z,100510.94
2019-03-01T09:49:13.716Z,100513.70
2019-03-01T09:51:43.746Z,100514.41
2019-03-01T09:54:14.516Z,100510.97
2019-03-01T09:56:44.017Z,100513.65
2019-03-01T09:59:13.576Z,100522.06
2019-03-01T10:01:43.056Z,100529.31
2019-03-01T10:04:12.536Z,100529.25
2019-03-01T10:06:41.984Z,100531.06
2019-03-01T10:09:12.464Z,100544.63
2019-03-01T10:11:42.078Z,100561.94
2019-03-01T10:14:11.715Z,100563.92
2019-03-01T10:16:41.216Z,100570.01
2019-03-01T10:19:10.788Z,100575.24
2019-03-01T10:21:40.330Z,100580.42
2019-03-01T10:24:09.894Z,100591.43
2019-03-01T10:26:39.628Z,100589.80
2019-03-01T10:29:09.195Z,100602.14
2019-03-01T10:31:38.815Z,100599.94
2019-03-01T10:34:08.413Z,100603.42
2019-03-01T10:36:37.881Z,100608.28
2019-03-01T10:39:13.677Z,100615.16
2019-03-01T10:41:43.283Z,100613.20
2019-03-01T10:44:12.896Z,100616.48
2019-03-01T10:46:43.244Z,100618.33
2019-03-01T10:49:13.026Z,100627.20
2019-03-01T10:51:42.896Z,100631.20
2019-03-01T10:54:16.639Z,100632.23
2019-03-01T10:56:46.174Z,100637.69
2019-03-01T10:59:15.725Z,100647.25
2019-03-01T11:01:45.295Z,100644.25
2019-03-01T11:04:14.797Z,100670.17
2019-03-01T11:06:44.375Z,100661.05
2019-03-01T11:09:14.150Z,100674.39
2019-03-01T11:11:43.701Z,100680.50
2019-03-01T11:14:13.262Z,100683.16
2019-03-01T11:16:43.140Z,100687.03
2019-03-01T11:19:12.748Z,100688.67
2019-03-01T11:21:42.429Z,100693.92
2019-03-01T11:24:15.197Z,100695.81
2019-03-01T11:26:47.281Z,100704.77
2019-03-01T11:29:16.862Z,100702.99
2019-03-01T11:31:46.422Z,100701.14
2019-03-01T11:34:16.062Z,100707.93
2019-03-01T11:36:45.512Z,100711.09
2019-03-01T11:39:16.882Z,100705.80
2019-03-01T11:41:46.363Z,100711.83
2019-03-01T11:44:15.896Z,100711.70
2019-03-01T11:46:45.439Z,100718.72
2019-03-01T11:49:15.237Z,100718.63
2019-03-01T11:51:44.815Z,100722.45
2019-03-01T11:54:14.319Z,100729.14
2019-03-01T11:56:44.767Z,100737.49
2019-03-01T11:59:14.375Z,100738.66
2019-03-01T12:01:43.912Z,100738.59
2019-03-01T12:04:13.447Z,100746.25
2019-03-01T12:06:46.057Z,100744.97
2019-03-01T12:09:15.667Z,100739.70
2019-03-01T12:11:45.101Z,100744.45
2019-03-01T12:14:14.679Z,100757.13
2019-03-01T12:16:44.211Z,100754.36
2019-03-01T12:19:14.208Z,100770.39
2019-03-01T12:21:43.667Z,100775.52
2019-03-01T12:24:13.229Z,100775.09
2019-03-01T12:26:42.877Z,100779.25
2019-03-01T12:29:12.440Z,100778.29
2019-03-01T12:31:41.989Z,100786.91
2019-03-01T12:34:11.493Z,100782.11
2019-03-01T12:36:40.926Z,100779.55
2019-03-01T12:39:10.805Z,100775.56
2019-03-01T12:41:40.320Z,100789.25
2019-03-01T12:44:10.371Z,100773.92
2019-03-01T12:46:39.820Z,100777.48
2019-03-01T12:49:10.477Z,100777.84
2019-03-01T12:51:39.937Z,100777.75
2019-03-01T12:54:09.458Z,100779.25
2019-03-01T12:56:38.902Z,100781.45
2019-03-01T12:59:08.547Z,100793.00
2019-03-01T13:01:38.106Z,100788.75
2019-03-01T13:04:07.587Z,100786.64
2019-03-01T13:06:38.937Z,100783.63
2019-03-01T13:09:15.344Z,100780.20
2019-03-01T13:11:44.957Z,100780.84
2019-03-01T13:14:14.447Z,100778.36
2019-03-01T13:16:44.073Z,100787.06
2019-03-01T13:19:13.580Z,100780.45
2019-03-01T13:21:45.542Z,100779.09
2019-03-01T13:24:16.377Z,100777.80
2019-03-01T13:26:45.972Z,100779.45
2019-03-01T13:29:15.550Z,100773.47
2019-03-01T13:31:47.174Z,100778.88
2019-03-01T13:34:16.584Z,100773.91
2019-03-01T13:36:46.146Z,100773.71
2019-03-01T13:39:16.879Z,100771.88
2019-03-01T13:41:48.202Z,100769.69
2019-03-01T13:44:17.902Z,100773.39
2019-03-01T13:46:47.703Z,100774.66
2019-03-01T13:49:17.404Z,100777.31
2019-03-01T13:51:49.452Z,100782.61
2019-03-01T13:54:18.338Z,100790.73
2019-03-01T13:56:48.085Z,100794.61
2019-03-01T13:59:18.882Z,100796.44
2019-03-01T14:01:48.518Z,100800.47
2019-03-01T14:04:18.326Z,100806.27
2019-03-01T14:06:48.214Z,100810.06
2019-03-01T14:09:18.189Z,100808.83
2019-03-01T14:11:47.978Z,100805.93
2019-03-01T14:14:17.869Z,100808.59
2019-03-01T14:16:47.494Z,100801.94
2019-03-01T14:19:17.323Z,100797.47
2019-03-01T14:21:47.205Z,100797.01
2019-03-01T14:24:16.762Z,100789.48
2019-03-01T14:26:46.601Z,100790.05
2019-03-01T14:29:16.980Z,100786.28
2019-03-01T14:31:46.753Z,100793.20
2019-03-01T14:34:16.431Z,100804.83
2019-03-01T14:36:46.047Z,100810.41
2019-03-01T14:39:17.975Z,100820.01
2019-03-01T14:41:47.735Z,100814.59
2019-03-01T14:44:17.472Z,100813.78
2019-03-01T14:46:47.266Z,100821.84
2019-03-01T14:49:18.455Z,100815.60
2019-03-01T14:51:48.399Z,100833.58
2019-03-01T14:54:18.286Z,100833.30
2019-03-01T14:56:52.039Z,100835.52
2019-03-01T14:59:38.194Z,100832.38
2019-03-01T15:02:23.648Z,100844.92
2019-03-01T15:04:54.357Z,100841.06
2019-03-01T15:07:24.199Z,100848.44
2019-03-01T15:09:57.178Z,100861.72
2019-03-01T15:12:25.880Z,100858.49
2019-03-01T15:14:55.775Z,100854.02
2019-03-01T15:17:25.793Z,100857.66
2019-03-01T15:19:55.763Z,100862.09
2019-03-01T15:22:25.812Z,100864.76
2019-03-01T15:24:55.931Z,100861.08
2019-03-01T15:27:25.821Z,100862.13
2019-03-01T15:29:56.612Z,100860.36
2019-03-01T15:32:26.494Z,100869.66
2019-03-01T15:34:56.512Z,100865.98
2019-03-01T15:37:26.335Z,100870.31
2019-03-01T15:39:56.432Z,100868.98
2019-03-01T15:42:26.439Z,100877.44
2019-03-01T15:44:56.401Z,100884.55
2019-03-01T15:47:27.383Z,100888.68
2019-03-01T15:49:57.356Z,100887.55
2019-03-01T15:52:27.189Z,100884.25
2019-03-01T15:54:57.154Z,100894.40
2019-03-01T15:57:27.068Z,100898.44
2019-03-01T15:59:57.403Z,100900.95
2019-03-01T16:02:27.273Z,100909.38
2019-03-01T16:04:57.092Z,100903.56
2019-03-01T16:07:29.004Z,100905.89
2019-03-01T16:10:01.103Z,100908.26
2019-03-01T16:12:32.285Z,100903.62
2019-03-01T16:15:01.823Z,100910.27
2019-03-01T16:17:31.799Z,100921.06
2019-03-01T16:20:01.906Z,100923.08
2019-03-01T16:22:31.906Z,100930.56
2019-03-01T16:25:01.979Z,100932.92
2019-03-01T16:27:32.004Z,100927.61
2019-03-01T16:30:01.885Z,100923.58
2019-03-01T16:32:31.701Z,100935.25
2019-03-01T16:35:01.652Z,100947.87
2019-03-01T16:37:31.548Z,100949.50
2019-03-01T16:40:01.822Z,100944.86
2019-03-01T16:42:38.179Z,100951.25
2019-03-01T16:45:03.688Z,100952.24
2019-03-01T16:47:33.691Z,100952.23
2019-03-01T16:50:06.410Z,100953.87
2019-03-01T16:52:35.660Z,100952.39
2019-03-01T16:55:06.226Z,100952.24
2019-03-01T16:57:36.239Z,100958.20
2019-03-01T17:00:07.490Z,100959.04
2019-03-01T17:02:38.685Z,100954.89
2019-03-01T17:05:10.005Z,100952.38
2019-03-01T17:07:40.024Z,100953.72
2019-03-01T17:10:12.065Z,100958.88
2019-03-01T17:12:42.057Z,100955.88
2019-03-01T17:15:17.536Z,100957.85
2019-03-01T17:17:47.657Z,100951.16
2019-03-01T17:20:18.489Z,100953.18
2019-03-01T17:22:48.650Z,100958.50
2019-03-01T17:25:19.501Z,100956.52
2019-03-01T17:27:49.700Z,100962.98
2019-03-01T17:30:20.264Z,100965.15
2019-03-01T17:32:50.361Z,100973.13
2019-03-01T17:35:20.351Z,100973.81
2019-03-01T17:37:50.201Z,100966.78
2019-03-01T17:40:20.243Z,100965.61
2019-03-01T17:42:53.210Z,100963.33
2019-03-01T17:45:22.355Z,100964.96
2019-03-01T17:47:52.359Z,100970.77
2019-03-01T17:50:22.488Z,100966.44
2019-03-01T17:52:52.533Z,100962.94
2019-03-01T17:55:24.296Z,100961.95
2019-03-01T17:57:54.622Z,100973.78
2019-03-01T18:00:30.770Z,100977.28
2019-03-01T18:03:00.898Z,100973.92
2019-03-01T18:05:31.043Z,100982.09
2019-03-01T18:08:03.564Z,100981.45
2019-03-01T18:10:34.164Z,100981.45
2019-03-01T18:13:04.099Z,100983.78
2019-03-01T18:15:34.103Z,100993.96
2019-03-01T18:18:04.113Z,100992.94
2019-03-01T18:20:37.685Z,100996.73
2019-03-01T18:23:06.190Z,101009.05
2019-03-01T18:25:36.349Z,101015.05
2019-03-01T18:28:06.486Z,101014.38
2019-03-01T18:30:36.398Z,101024.70
2019-03-01T18:33:06.489Z,101031.52
2019-03-01T18:35:36.612Z,101030.71
2019-03-01T18:38:07.134Z,101039.83
2019-03-01T18:40:37.512Z,101032.04
2019-03-01T18:43:09.716Z,101027.52
2019-03-01T18:45:41.975Z,101025.20
2019-03-01T18:48:12.141Z,101024.70
2019-03-01T18:50:42.226Z,101023.53
2019-03-01T18:53:12.236Z,101022.39
2019-03-01T18:55:42.208Z,101024.70
2019-03-01T18:58:13.991Z,101015.73
2019-03-01T19:00:44.165Z,101016.39
2019-03-01T19:03:14.285Z,101015.77
2019-03-01T19:05:44.421Z,101022.73
2019-03-01T19:08:14.434Z,101020.37
2019-03-01T19:10:53.747Z,101019.42
2019-03-01T19:13:16.397Z,101029.08
2019-03-01T19:15:48.009Z,101026.41
2019-03-01T19:18:18.814Z,101029.23
2019-03-01T19:20:49.177Z,101023.75
2019-03-01T19:23:19.177Z,101027.74
2019-03-01T19:25:49.347Z,101031.05
2019-03-01T19:28:19.486Z,101027.59
2019-03-01T19:30:50.606Z,101042.03
2019-03-01T19:33:20.628Z,101042.38
2019-03-01T19:35:50.890Z,101041.84
2019-03-01T19:38:21.734Z,101035.41
2019-03-01T19:40:53.045Z,101034.58
2019-03-01T19:43:23.601Z,101039.22
2019-03-01T19:45:53.619Z,101037.39
2019-03-01T19:48:23.716Z,101034.73
2019-03-01T19:50:54.912Z,101035.07
2019-03-01T19:53:25.452Z,101038.04
2019-03-01T19:55:56.413Z,101039.38
2019-03-01T19:58:27.569Z,101039.68
2019-03-01T20:00:57.728Z,101039.19
2019-03-01T20:03:27.800Z,101043.02
2019-03-01T20:05:57.771Z,101042.03
2019-03-01T20:08:29.813Z,101042.86
2019-03-01T20:10:59.961Z,101041.38
2019-03-01T20:13:37.131Z,101044.69
2019-03-01T20:16:07.150Z,101038.04
2019-03-01T20:18:37.217Z,101038.88
2019-03-01T20:21:09.407Z,101042.22
2019-03-01T20:23:39.130Z,101040.20
2019-03-01T20:26:08.608Z,101042.71
2019-03-01T20:28:38.588Z,101051.19
2019-03-01T20:31:08.787Z,101043.05
2019-03-01T20:33:39.188Z,101038.91
2019-03-01T20:36:09.166Z,101046.87
2019-03-01T20:38:39.898Z,101045.03
2019-03-01T20:41:11.008Z,101042.22
2019-03-01T20:43:41.764Z,101046.05
2019-03-01T20:46:12.832Z,101044.07
2019-03-01T20:48:44.412Z,101059.66
2019-03-01T20:51:14.621Z,101054.49
2019-03-01T20:53:45.712Z,101050.87
2019-03-01T20:56:17.156Z,101063.30
2019-03-01T20:58:47.148Z,101057.34
2019-03-01T21:01:17.316Z,101055.52
2019-03-01T21:03:47.599Z,101056.84
2019-03-01T21:06:17.488Z,101057.67
2019-03-01T21:08:47.623Z,101057.02
2019-03-01T21:11:17.824Z,101057.67
2019-03-01T21:13:49.116Z,101065.68
2019-03-01T21:16:19.620Z,101061.38
2019-03-01T21:18:49.744Z,101063.20
2019-03-01T21:21:19.777Z,101061.02
2019-03-01T21:23:51.019Z,101065.86
2019-03-01T21:26:21.098Z,101061.35
2019-03-01T21:28:51.159Z,101066.67
2019-03-01T21:31:22.148Z,101068.52
2019-03-01T21:33:52.099Z,101074.67
2019-03-01T21:36:22.939Z,101073.19
2019-03-01T21:38:54.048Z,101076.00
2019-03-01T21:41:26.552Z,101078.00
2019-03-01T21:43:56.373Z,101077.33
2019-03-01T21:46:26.221Z,101071.70
2019-03-01T21:48:56.806Z,101068.02
2019-03-01T21:51:28.120Z,101070.52
2019-03-01T21:53:58.221Z,101065.73
2019-03-01T21:56:28.138Z,101070.73
2019-03-01T21:58:57.944Z,101072.70
2019-03-01T22:01:27.904Z,101071.06
2019-03-01T22:03:59.261Z,101066.75
2019-03-01T22:06:29.480Z,101070.73
2019-03-01T22:08:59.135Z,101071.58
2019-03-01T22:11:29.221Z,101072.25
2019-03-01T22:13:59.185Z,101076.24
2019-03-01T22:16:28.984Z,101073.27
2019-03-01T22:18:59.963Z,101071.60
2019-03-01T22:21:30.047Z,101070.45
2019-03-01T22:23:59.804Z,101070.94
2019-03-01T22:26:29.362Z,101071.92
2019-03-01T22:28:58.990Z,101072.44
2019-03-01T22:31:32.627Z,101073.77
2019-03-01T22:34:01.130Z,101075.91
2019-03-01T22:36:30.704Z,101080.73
2019-03-01T22:39:00.233Z,101074.08
2019-03-01T22:41:30.001Z,101077.75
2019-03-01T22:44:01.754Z,101082.72
2019-03-01T22:46:31.394Z,101082.74
2019-03-01T22:49:00.977Z,101082.75
2019-03-01T22:51:30.517Z,101085.91
2019-03-01T22:54:00.284Z,101077.44
2019-03-01T22:56:29.896Z,101084.57
2019-03-01T22:58:59.603Z,101083.09
2019-03-01T23:01:36.458Z,101084.23
2019-03-01T23:04:07.127Z,101086.09
2019-03-01T23:06:36.577Z,101082.58
2019-03-01T23:09:10.649Z,101089.07
2019-03-01T23:11:40.547Z,101086.73
2019-03-01T23:14:10.133Z,101084.09
2019-03-01T23:16:39.791Z,101076.29
2019-03-01T23:19:12.757Z,101079.44
2019-03-01T23:21:41.156Z,101080.94
2019-03-01T23:24:11.507Z,101076.10
2019-03-01T23:26:40.980Z,101071.95
2019-03-01T23:29:10.940Z,101075.11
2019-03-01T23:31:40.532Z,101073.80
2019-03-01T23:34:10.510Z,101077.12
2019-03-01T23:36:40.103Z,101076.28
2019-03-01T23:39:09.860Z,101073.11
2019-03-01T23:41:39.447Z,101069.80
2019-03-01T23:44:09.077Z,101062.50
2019-03-01T23:46:38.631Z,101059.37
2019-03-01T23:49:08.337Z,101063.51
2019-03-01T23:51:38.397Z,101058.19
2019-03-01T23:54:09.063Z,101055.19
2019-03-01T23:56:39.207Z,101053.38
2019-03-01T23:59:08.677Z,101058.19
